Time;durP1;ratioP1;P1;durP2;ratioP2;P2;SDS_P1;SDS_P2;PMS_P1;PMS_P2;Temp;Humidity;BMP_temperature;BMP_pressure;BME280_temperature;BME280_humidity;BME280_pressure;Samples;Min_cycle;Max_cycle;Signal;HPM_P1;HPM_P2
2023/03/23 00:00:16;;;;;;;35.60;19.83;;;;;;;;;;2039067;29;19997;-89
2023/03/23 00:01:19;;;;;;;32.05;19.75;;;;;;;;;;2031092;29;20062;-89
2023/03/23 00:02:26;;;;;;;34.67;22.77;;;;;;;;;;2023750;29;20516;-89
2023/03/23 00:03:28;;;;;;;34.55;21.98;;;;;;;;;;2032212;29;20103;-89
2023/03/23 00:04:42;;;;;;;34.78;21.75;;;;;;;;;;2039063;29;20024;-89
2023/03/23 00:06:06;;;;;;;41.03;23.98;;;;;;;;;;2049145;29;20047;-96
2023/03/23 00:07:07;;;;;;;36.00;22.83;;;;;;;;;;2040287;29;20046;-95
2023/03/23 00:08:12;;;;;;;32.20;19.65;;;;;;;;;;2040327;29;20036;-96
2023/03/23 00:09:24;;;;;;;25.75;18.00;;;;;;;;;;2038910;29;20031;-89
2023/03/23 00:10:26;;;;;;;28.35;18.10;;;;;;;;;;2039691;29;20547;-89
2023/03/23 00:11:31;;;;;;;29.30;19.27;;;;;;;;;;1686921;29;10158109;-90
2023/03/23 00:12:35;;;;;;;29.15;19.85;;;;;;;;;;2031947;29;20028;-89
2023/03/23 00:13:36;;;;;;;38.25;24.48;;;;;;;;;;2039689;29;20094;-89
2023/03/23 00:14:40;;;;;;;43.20;26.35;;;;;;;;;;2031080;29;20073;-89
2023/03/23 00:15:42;;;;;;;35.95;24.13;;;;;;;;;;2031582;29;20319;-89
2023/03/23 00:16:42;;;;;;;49.00;28.42;;;;;;;;;;2033285;29;20028;-89
2023/03/23 00:17:46;;;;;;;42.50;24.67;;;;;;;;;;2037785;29;20098;-88
2023/03/23 00:18:52;;;;;;;38.58;23.77;;;;;;;;;;2044011;29;20027;-89
2023/03/23 00:19:52;;;;;;;44.92;27.10;;;;;;;;;;2042522;29;20354;-89
2023/03/23 00:20:56;;;;;;;44.97;27.60;;;;;;;;;;2031156;29;20064;-89
2023/03/23 00:22:00;;;;;;;41.83;25.42;;;;;;;;;;2031593;29;20066;-89
2023/03/23 00:23:01;;;;;;;41.63;25.48;;;;;;;;;;2039084;29;20411;-89
2023/03/23 00:24:16;;;;;;;43.00;23.88;;;;;;;;;;2038977;29;20036;-88
2023/03/23 00:25:17;;;;;;;38.63;23.33;;;;;;;;;;2038908;29;20042;-88
2023/03/23 00:26:18;;;;;;;42.33;24.85;;;;;;;;;;2031208;29;20158;-88
2023/03/23 00:27:18;;;;;;;;;;;;;;;;;;2023900;29;20067;-88
2023/03/23 00:28:24;;;;;;;37.13;22.70;;;;;;;;;;2031080;29;20410;-87
2023/03/23 00:29:25;;;;;;;33.70;21.75;;;;;;;;;;2031018;29;20032;-88
2023/03/23 00:30:26;;;;;;;32.85;20.88;;;;;;;;;;2031227;29;20106;-88
2023/03/23 00:31:35;;;;;;;32.13;20.38;;;;;;;;;;2039491;29;20543;-88
2023/03/23 00:32:35;;;;;;;34.00;22.25;;;;;;;;;;2030935;29;20515;-87
2023/03/23 00:33:40;;;;;;;39.58;22.63;;;;;;;;;;2023111;29;20033;-88
2023/03/23 00:34:42;;;;;;;38.75;23.42;;;;;;;;;;2034230;29;20035;-88
2023/03/23 00:35:44;;;;;;;48.13;24.25;;;;;;;;;;2031180;29;20032;-87
2023/03/23 00:36:58;;;;;;;33.33;22.95;;;;;;;;;;2031179;29;20087;-87
2023/03/23 00:38:00;;;;;;;35.80;22.98;;;;;;;;;;2030860;29;20139;-87
2023/03/23 00:39:03;;;;;;;38.55;22.55;;;;;;;;;;2031039;29;20496;-87
2023/03/23 00:40:08;;;;;;;35.55;20.15;;;;;;;;;;2031230;29;20035;-88
2023/03/23 00:41:11;;;;;;;35.38;21.20;;;;;;;;;;2031394;29;20035;-87
2023/03/23 00:42:14;;;;;;;35.72;20.88;;;;;;;;;;2031091;29;20035;-88
2023/03/23 00:43:18;;;;;;;28.63;19.75;;;;;;;;;;2031329;29;20095;-87
2023/03/23 00:44:19;;;;;;;30.52;19.30;;;;;;;;;;2030730;29;20039;-88
2023/03/23 00:45:19;;;;;;;31.67;19.75;;;;;;;;;;2022980;29;20043;-88
2023/03/23 00:46:20;;;;;;;29.52;18.70;;;;;;;;;;2023154;29;20038;-88
2023/03/23 00:47:20;;;;;;;27.45;18.30;;;;;;;;;;2031046;29;20063;-89
2023/03/23 00:48:23;;;;;;;27.80;18.33;;;;;;;;;;2039404;29;20108;-89
2023/03/23 00:49:25;;;;;;;37.95;19.20;;;;;;;;;;2030860;29;20024;-89
2023/03/23 00:50:26;;;;;;;27.83;16.98;;;;;;;;;;2031042;29;20028;-89
2023/03/23 00:51:26;;;;;;;;;;;;;;;;;;2039401;29;20035;-88
2023/03/23 00:52:26;;;;;;;28.47;17.83;;;;;;;;;;2040034;29;19997;-89
2023/03/23 00:53:27;;;;;;;28.23;16.75;;;;;;;;;;2032081;29;20571;-88
2023/03/23 00:54:28;;;;;;;26.70;17.35;;;;;;;;;;2031595;29;20031;-89
2023/03/23 00:55:30;;;;;;;;;;;;;;;;;;2049177;28;20027;-89
2023/03/23 00:56:30;;;;;;;25.98;16.30;;;;;;;;;;2041429;29;19938;-89
2023/03/23 00:57:31;;;;;;;25.25;17.42;;;;;;;;;;2027994;29;20037;-90
2023/03/23 00:58:31;;;;;;;29.70;18.40;;;;;;;;;;2041543;29;20064;-89
2023/03/23 00:59:31;;;;;;;;;;;;;;;;;;2049184;29;20055;-89
2023/03/23 01:00:32;;;;;;;26.60;16.73;;;;;;;;;;2037713;29;19918;-89
2023/03/23 01:01:33;;;;;;;29.10;17.25;;;;;;;;;;2024721;29;20491;-90
2023/03/23 01:02:35;;;;;;;;;;;;;;;;;;2031328;29;20028;-89
2023/03/23 01:03:36;;;;;;;26.85;16.52;;;;;;;;;;2031049;29;20062;-89
2023/03/23 01:04:38;;;;;;;30.08;17.70;;;;;;;;;;2032196;29;20028;-90
2023/03/23 01:05:39;;;;;;;29.58;17.70;;;;;;;;;;2039676;29;20114;-89
2023/03/23 01:06:42;;;;;;;27.05;17.20;;;;;;;;;;2039234;29;20395;-89
2023/03/23 01:07:44;;;;;;;27.48;17.27;;;;;;;;;;2030784;29;20032;-90
2023/03/23 01:08:47;;;;;;;30.52;17.55;;;;;;;;;;2030777;29;20047;-89
2023/03/23 01:09:48;;;;;;;31.50;18.52;;;;;;;;;;2031782;29;20059;-89
2023/03/23 01:10:48;;;;;;;;;;;;;;;;;;2037715;29;20035;-88
2023/03/23 01:11:53;;;;;;;30.52;17.02;;;;;;;;;;2038719;29;20024;-89
2023/03/23 01:12:54;;;;;;;29.20;17.27;;;;;;;;;;2031722;29;20042;-89
2023/03/23 01:13:55;;;;;;;30.20;18.42;;;;;;;;;;2038575;29;20039;-89
2023/03/23 01:14:55;;;;;;;31.95;18.42;;;;;;;;;;2041862;29;20031;-89
2023/03/23 01:15:56;;;;;;;26.48;17.33;;;;;;;;;;2032799;29;20028;-89
2023/03/23 01:16:56;;;;;;;28.00;17.48;;;;;;;;;;2032806;29;20210;-89
2023/03/23 01:17:57;;;;;;;27.17;17.95;;;;;;;;;;2039797;29;20442;-89
2023/03/23 01:18:57;;;;;;;23.67;15.98;;;;;;;;;;2031506;29;20099;-89
2023/03/23 01:19:58;;;;;;;25.98;17.10;;;;;;;;;;2031614;29;20067;-89
2023/03/23 01:21:12;;;;;;;25.70;16.58;;;;;;;;;;2039790;29;20550;-89
2023/03/23 01:22:13;;;;;;;24.35;16.92;;;;;;;;;;2039321;29;20066;-89
2023/03/23 01:23:13;;;;;;;30.73;17.60;;;;;;;;;;2030610;29;20535;-88
2023/03/23 01:24:14;;;;;;;;;;;;;;;;;;2031072;29;20136;-88
2023/03/23 01:25:14;;;;;;;28.30;17.77;;;;;;;;;;2030634;29;20271;-89
2023/03/23 01:26:20;;;;;;;28.73;18.02;;;;;;;;;;2030684;29;20480;-89
2023/03/23 01:27:21;;;;;;;28.33;16.92;;;;;;;;;;2030821;29;20024;-88
2023/03/23 01:28:21;;;;;;;29.02;18.85;;;;;;;;;;2030681;29;20099;-88
2023/03/23 01:29:21;;;;;;;28.17;18.77;;;;;;;;;;2039320;29;20027;-88
2023/03/23 01:30:22;;;;;;;29.88;19.05;;;;;;;;;;2039156;29;20062;-88
2023/03/23 01:31:25;;;;;;;31.92;19.40;;;;;;;;;;2039149;29;20027;-88
2023/03/23 01:32:25;;;;;;;31.27;20.20;;;;;;;;;;2038108;29;20510;-88
2023/03/23 01:33:25;;;;;;;28.58;18.45;;;;;;;;;;2030523;29;20039;-89
2023/03/23 01:34:26;;;;;;;34.70;20.63;;;;;;;;;;1687378;29;10130310;-88
2023/03/23 01:35:26;;;;;;;34.35;19.17;;;;;;;;;;2039048;29;20028;-88
2023/03/23 01:36:28;;;;;;;;;;;;;;;;;;2030988;29;20221;-88
2023/03/23 01:37:29;;;;;;;;;;;;;;;;;;2031637;29;20295;-88
2023/03/23 01:38:30;;;;;;;31.02;18.73;;;;;;;;;;2039088;29;19921;-89
2023/03/23 01:39:31;;;;;;;29.95;18.38;;;;;;;;;;2030464;29;20596;-88
2023/03/23 01:40:31;;;;;;;30.05;19.10;;;;;;;;;;2022837;29;20170;-88
2023/03/23 01:41:33;;;;;;;;;;;;;;;;;;2023166;29;20063;-88
2023/03/23 01:42:36;;;;;;;28.50;17.98;;;;;;;;;;2022792;29;19918;-89
2023/03/23 01:43:54;;;;;;;30.33;19.40;;;;;;;;;;2030517;29;20418;-88
2023/03/23 01:44:54;;;;;;;32.47;18.35;;;;;;;;;;2038401;29;20038;-89
2023/03/23 01:45:55;;;;;;;29.20;18.67;;;;;;;;;;2038879;29;20527;-88
2023/03/23 01:46:56;;;;;;;27.63;18.35;;;;;;;;;;1697804;29;10001026;-89
2023/03/23 01:48:12;;;;;;;29.33;18.55;;;;;;;;;;2038194;29;20111;-88
2023/03/23 01:49:21;;;;;;;29.95;19.13;;;;;;;;;;2030294;29;20020;-90
2023/03/23 01:50:24;;;;;;;31.95;20.65;;;;;;;;;;2031481;29;20095;-88
2023/03/23 01:51:26;;;;;;;30.08;18.65;;;;;;;;;;2038097;29;20051;-87
2023/03/23 01:52:29;;;;;;;27.13;17.75;;;;;;;;;;2030550;29;20661;-88
2023/03/23 01:53:54;;;;;;;31.63;18.70;;;;;;;;;;2022263;29;20095;-88
2023/03/23 01:54:56;;;;;;;27.85;18.25;;;;;;;;;;2025717;29;20031;-88
2023/03/23 01:55:58;;;;;;;30.98;18.08;;;;;;;;;;2030611;29;20036;-87
2023/03/23 01:57:08;;;;;;;32.60;19.48;;;;;;;;;;2030171;29;20028;-88
2023/03/23 01:58:11;;;;;;;31.60;18.67;;;;;;;;;;2031841;29;20024;-88
2023/03/23 01:59:13;;;;;;;32.55;18.42;;;;;;;;;;2038703;29;20403;-87
2023/03/23 02:00:14;;;;;;;32.10;18.77;;;;;;;;;;2030332;29;20115;-88
2023/03/23 02:01:15;;;;;;;29.73;18.08;;;;;;;;;;2030276;29;20024;-90
2023/03/23 02:02:16;;;;;;;31.67;18.25;;;;;;;;;;2038894;29;20047;-89
2023/03/23 02:03:17;;;;;;;;;;;;;;;;;;2032386;29;20020;-90
2023/03/23 02:04:18;;;;;;;29.45;16.88;;;;;;;;;;2036696;29;19919;-88
2023/03/23 02:05:25;;;;;;;36.38;20.08;;;;;;;;;;2045509;29;20034;-88
2023/03/23 02:06:26;;;;;;;33.53;19.17;;;;;;;;;;2039101;29;20156;-89
2023/03/23 02:07:26;;;;;;;37.25;19.52;;;;;;;;;;2030358;29;20140;-89
2023/03/23 02:08:28;;;;;;;28.90;17.95;;;;;;;;;;2030435;29;20106;-88
2023/03/23 02:09:29;;;;;;;37.63;19.30;;;;;;;;;;2039014;29;20023;-89
2023/03/23 02:10:31;;;;;;;35.97;19.25;;;;;;;;;;2039013;29;20047;-90
2023/03/23 02:11:32;;;;;;;33.92;19.17;;;;;;;;;;2030522;29;20023;-90
2023/03/23 02:12:33;;;;;;;35.83;19.45;;;;;;;;;;2030433;29;20039;-89
2023/03/23 02:13:33;;;;;;;36.15;18.92;;;;;;;;;;2038180;29;20553;-89
2023/03/23 02:14:34;;;;;;;33.78;19.13;;;;;;;;;;2030288;29;20024;-90
2023/03/23 02:16:17;;;;;;;31.75;18.67;;;;;;;;;;2030370;29;20130;-90
2023/03/23 02:17:38;;;;;;;28.77;16.23;;;;;;;;;;2015672;29;20025;-95
2023/03/23 02:19:11;;;;;;;26.77;17.25;;;;;;;;;;2010220;29;20445;-96
2023/03/23 02:20:30;;;;;;;29.77;16.73;;;;;;;;;;1995033;29;20034;-96
2023/03/23 02:21:39;;;;;;;29.70;16.65;;;;;;;;;;2009745;29;20037;-94
2023/03/23 02:22:55;;;;;;;31.08;18.73;;;;;;;;;;2016944;29;20085;-95
2023/03/23 02:24:14;;;;;;;33.22;17.70;;;;;;;;;;2034696;29;20031;-95
2023/03/23 02:25:32;;;;;;;29.88;17.40;;;;;;;;;;2033147;29;20111;-94
2023/03/23 02:27:02;;;;;;;29.75;17.85;;;;;;;;;;2035176;29;20024;-92
2023/03/23 02:28:12;;;;;;;28.95;15.55;;;;;;;;;;2040956;29;20027;-94
2023/03/23 02:29:25;;;;;;;25.73;15.03;;;;;;;;;;2033016;29;20127;-95
2023/03/23 02:30:38;;;;;;;22.80;13.50;;;;;;;;;;2033033;29;20311;-94
2023/03/23 02:33:17;;;;;;;24.38;13.40;;;;;;;;;;2256444;23;20134;-95
2023/03/23 02:34:22;;;;;;;22.90;13.55;;;;;;;;;;2032459;29;20070;-89
2023/03/23 02:35:43;;;;;;;20.80;12.55;;;;;;;;;;2030814;29;20151;-90
2023/03/23 02:36:52;;;;;;;18.63;11.40;;;;;;;;;;2030288;29;20074;-90
2023/03/23 02:37:59;;;;;;;20.73;11.48;;;;;;;;;;2030723;29;20035;-89
2023/03/23 02:39:32;;;;;;;20.73;12.60;;;;;;;;;;2030946;29;20060;-89
2023/03/23 02:40:45;;;;;;;18.17;12.07;;;;;;;;;;2006433;29;20057;-88
2023/03/23 02:41:53;;;;;;;19.98;11.35;;;;;;;;;;2028108;29;20044;-87
2023/03/23 02:42:55;;;;;;;19.25;10.93;;;;;;;;;;2030112;29;20092;-88
2023/03/23 02:43:57;;;;;;;21.70;11.82;;;;;;;;;;2030085;29;20028;-89
2023/03/23 02:45:00;;;;;;;18.00;10.55;;;;;;;;;;2037830;29;20035;-89
2023/03/23 02:46:01;;;;;;;18.70;11.43;;;;;;;;;;2029994;29;20039;-88
2023/03/23 02:47:05;;;;;;;19.83;11.20;;;;;;;;;;2030031;29;20519;-89
2023/03/23 02:48:08;;;;;;;20.55;11.55;;;;;;;;;;2030083;29;20122;-88
2023/03/23 02:49:12;;;;;;;17.45;10.85;;;;;;;;;;2030334;29;20412;-89
2023/03/23 02:50:16;;;;;;;19.00;11.25;;;;;;;;;;2030751;29;20024;-88
2023/03/23 02:51:19;;;;;;;22.63;10.80;;;;;;;;;;2024008;29;20050;-88
2023/03/23 02:52:24;;;;;;;19.10;11.35;;;;;;;;;;2038272;29;20023;-89
2023/03/23 02:53:26;;;;;;;21.83;10.98;;;;;;;;;;2030229;29;20028;-88
2023/03/23 02:54:28;;;;;;;20.85;12.43;;;;;;;;;;2022469;29;20472;-89
2023/03/23 02:55:30;;;;;;;19.60;11.05;;;;;;;;;;2022304;29;20036;-88
2023/03/23 02:56:32;;;;;;;19.63;11.00;;;;;;;;;;2022834;29;20029;-88
2023/03/23 02:57:33;;;;;;;18.05;10.65;;;;;;;;;;2028434;29;20524;-89
2023/03/23 02:58:34;;;;;;;19.25;10.95;;;;;;;;;;2039701;29;20072;-88
2023/03/23 02:59:35;;;;;;;19.50;10.73;;;;;;;;;;2031118;29;20120;-89
2023/03/23 03:00:36;;;;;;;20.77;10.98;;;;;;;;;;2024209;29;20047;-89
2023/03/23 03:01:36;;;;;;;17.42;10.77;;;;;;;;;;2030084;29;20044;-89
2023/03/23 03:02:40;;;;;;;;;;;;;;;;;;2030512;29;20048;-88
2023/03/23 03:03:41;;;;;;;17.10;9.80;;;;;;;;;;2030352;29;19994;-88
2023/03/23 03:04:48;;;;;;;20.92;11.55;;;;;;;;;;2030695;29;20564;-89
2023/03/23 03:06:09;;;;;;;17.60;10.23;;;;;;;;;;2034978;29;20492;-90
2023/03/23 03:07:29;;;;;;;20.02;11.30;;;;;;;;;;2032926;29;20047;-88
2023/03/23 03:09:04;;;;;;;19.73;11.20;;;;;;;;;;2032663;29;20191;-88
2023/03/23 03:10:22;;;;;;;17.80;10.75;;;;;;;;;;2031961;29;20032;-91
2023/03/23 03:11:25;;;;;;;17.15;9.45;;;;;;;;;;2031876;29;20567;-88
2023/03/23 03:12:44;;;;;;;21.52;11.65;;;;;;;;;;2032135;29;20051;-89
2023/03/23 03:13:59;;;;;;;17.85;10.43;;;;;;;;;;2031868;29;20028;-89
2023/03/23 03:15:23;;;;;;;17.60;10.60;;;;;;;;;;2032376;29;20032;-88
2023/03/23 03:16:36;;;;;;;17.50;9.70;;;;;;;;;;2032558;29;20514;-90
2023/03/23 03:17:45;;;;;;;20.85;11.13;;;;;;;;;;2032493;29;20028;-89
2023/03/23 03:19:03;;;;;;;20.80;10.88;;;;;;;;;;2032520;29;20071;-90
2023/03/23 03:20:09;;;;;;;17.50;9.50;;;;;;;;;;2031986;29;20419;-90
2023/03/23 03:21:14;;;;;;;18.77;10.88;;;;;;;;;;2024874;29;20073;-89
2023/03/23 03:22:15;;;;;;;19.42;11.35;;;;;;;;;;2024364;29;20036;-89
2023/03/23 03:23:17;;;;;;;21.98;11.23;;;;;;;;;;2031878;29;20524;-90
2023/03/23 03:24:20;;;;;;;24.55;11.43;;;;;;;;;;2031721;29;20038;-89
2023/03/23 03:25:22;;;;;;;18.02;11.35;;;;;;;;;;2031952;29;20075;-90
2023/03/23 03:26:26;;;;;;;21.50;11.50;;;;;;;;;;2031888;29;20506;-89
2023/03/23 03:27:28;;;;;;;22.45;10.32;;;;;;;;;;2024978;29;20024;-89
2023/03/23 03:28:28;;;;;;;22.20;11.73;;;;;;;;;;2041781;29;20134;-89
2023/03/23 03:29:33;;;;;;;19.75;10.60;;;;;;;;;;2049961;29;20035;-88
2023/03/23 03:30:38;;;;;;;21.48;11.65;;;;;;;;;;2038927;29;20032;-88
2023/03/23 03:31:45;;;;;;;21.70;12.35;;;;;;;;;;2034596;29;20052;-93
2023/03/23 03:32:50;;;;;;;23.20;12.45;;;;;;;;;;2032668;29;20037;-87
2023/03/23 03:33:51;;;;;;;26.65;13.60;;;;;;;;;;2032308;29;20111;-90
2023/03/23 03:34:52;;;;;;;;;;;;;;;;;;2032776;29;20043;-89
2023/03/23 03:35:57;;;;;;;31.33;17.05;;;;;;;;;;2032208;29;20232;-90
2023/03/23 03:36:59;;;;;;;28.02;16.10;;;;;;;;;;2032302;29;20032;-89
2023/03/23 03:38:05;;;;;;;26.50;15.45;;;;;;;;;;2032740;29;20169;-88
2023/03/23 03:39:09;;;;;;;28.75;16.23;;;;;;;;;;2032838;29;20526;-89
2023/03/23 03:40:16;;;;;;;26.48;13.95;;;;;;;;;;2031690;29;20042;-88
2023/03/23 03:41:18;;;;;;;26.05;14.20;;;;;;;;;;2032570;29;20032;-88
2023/03/23 03:42:19;;;;;;;24.95;14.15;;;;;;;;;;2031900;29;20028;-88
2023/03/23 03:43:19;;;;;;;;;;;;;;;;;;2032692;29;20043;-88
2023/03/23 03:44:20;;;;;;;21.60;13.13;;;;;;;;;;2032655;29;19922;-89
2023/03/23 03:45:20;;;;;;;;;;;;;;;;;;2033333;29;20031;-89
2023/03/23 03:46:21;;;;;;;26.63;12.83;;;;;;;;;;2033240;29;19915;-90
2023/03/23 03:47:21;;;;;;;20.23;12.60;;;;;;;;;;2038690;29;20024;-89
2023/03/23 03:48:21;;;;;;;23.02;13.50;;;;;;;;;;2031061;29;20084;-90
2023/03/23 03:49:22;;;;;;;21.83;11.68;;;;;;;;;;2037578;29;20037;-90
2023/03/23 03:50:23;;;;;;;23.88;12.57;;;;;;;;;;2045216;29;20023;-89
2023/03/23 03:51:25;;;;;;;22.58;12.18;;;;;;;;;;2040322;29;20020;-89
2023/03/23 03:52:27;;;;;;;22.23;12.38;;;;;;;;;;2036133;29;20107;-88
2023/03/23 03:53:27;;;;;;;20.70;11.63;;;;;;;;;;2032116;29;20031;-89
2023/03/23 03:54:28;;;;;;;20.65;11.15;;;;;;;;;;2031837;29;20024;-89
2023/03/23 03:55:29;;;;;;;21.10;11.63;;;;;;;;;;2031928;29;20095;-88
2023/03/23 03:56:31;;;;;;;21.10;11.13;;;;;;;;;;2023825;29;20024;-89
2023/03/23 03:57:31;;;;;;;19.02;10.43;;;;;;;;;;2024374;29;20499;-89
2023/03/23 03:58:32;;;;;;;;;;;;;;;;;;2024391;29;20028;-88
2023/03/23 03:59:32;;;;;;;22.80;10.20;;;;;;;;;;2031949;29;19911;-89
2023/03/23 04:00:33;;;;;;;18.58;10.75;;;;;;;;;;2032155;29;20046;-91
2023/03/23 04:01:33;;;;;;;17.00;10.45;;;;;;;;;;2031640;29;20048;-91
2023/03/23 04:02:34;;;;;;;;;;;;;;;;;;2024833;29;20368;-90
2023/03/23 04:03:34;;;;;;;18.47;10.87;;;;;;;;;;2031906;29;20426;-91
2023/03/23 04:04:34;;;;;;;;;;;;;;;;;;2032967;29;20032;-91
2023/03/23 04:05:36;;;;;;;19.27;9.80;;;;;;;;;;2031558;29;19918;-91
2023/03/23 04:06:37;;;;;;;20.92;10.93;;;;;;;;;;2031672;29;20028;-91
2023/03/23 04:07:39;;;;;;;16.80;9.75;;;;;;;;;;2032259;29;20031;-91
2023/03/23 04:08:41;;;;;;;19.15;9.82;;;;;;;;;;2031517;29;20423;-90
2023/03/23 04:09:48;;;;;;;18.63;9.90;;;;;;;;;;2031689;29;20632;-89
2023/03/23 04:10:49;;;;;;;16.98;10.20;;;;;;;;;;2031354;29;20040;-89
2023/03/23 04:11:49;;;;;;;20.23;10.25;;;;;;;;;;2031317;29;20039;-89
2023/03/23 04:12:50;;;;;;;18.80;10.40;;;;;;;;;;2031560;29;20515;-90
2023/03/23 04:13:50;;;;;;;;;;;;;;;;;;2031890;29;20032;-89
2023/03/23 04:14:51;;;;;;;19.20;11.10;;;;;;;;;;2031400;29;19918;-89
2023/03/23 04:15:51;;;;;;;17.40;10.70;;;;;;;;;;2031518;29;20059;-90
2023/03/23 04:16:56;;;;;;;25.00;11.23;;;;;;;;;;2031054;29;20466;-90
2023/03/23 04:17:57;;;;;;;21.80;11.60;;;;;;;;;;2031471;29;20119;-90
2023/03/23 04:18:58;;;;;;;19.15;10.18;;;;;;;;;;2031546;29;20050;-90
2023/03/23 04:19:59;;;;;;;22.25;11.27;;;;;;;;;;2031327;29;20039;-90
2023/03/23 04:21:02;;;;;;;18.70;11.40;;;;;;;;;;2031252;29;20035;-90
2023/03/23 04:22:04;;;;;;;18.13;10.38;;;;;;;;;;2031388;29;20051;-90
2023/03/23 04:23:05;;;;;;;19.65;10.68;;;;;;;;;;2039304;29;20035;-91
2023/03/23 04:24:06;;;;;;;18.25;10.82;;;;;;;;;;2031260;29;20504;-90
2023/03/23 04:25:10;;;;;;;21.10;11.50;;;;;;;;;;2032049;29;20036;-90
2023/03/23 04:26:12;;;;;;;20.98;11.18;;;;;;;;;;2031575;29;20036;-90
2023/03/23 04:27:13;;;;;;;23.05;11.25;;;;;;;;;;2031518;29;20046;-90
2023/03/23 04:28:16;;;;;;;;;;;;;;;;;;2039555;29;20027;-90
2023/03/23 04:29:17;;;;;;;17.52;10.95;;;;;;;;;;2039255;29;20329;-90
2023/03/23 04:30:18;;;;;;;;;;;;;;;;;;2039651;29;20102;-89
2023/03/23 04:31:18;;;;;;;18.63;11.02;;;;;;;;;;2031275;29;19974;-88
2023/03/23 04:32:18;;;;;;;;;;;;;;;;;;2023641;29;20517;-91
2023/03/23 04:33:21;;;;;;;25.30;12.20;;;;;;;;;;2023467;29;19923;-91
2023/03/23 04:34:22;;;;;;;22.27;12.25;;;;;;;;;;2031149;29;20420;-90
2023/03/23 04:35:29;;;;;;;23.13;12.65;;;;;;;;;;2031992;29;20032;-90
2023/03/23 04:36:30;;;;;;;21.17;11.73;;;;;;;;;;2031218;29;20075;-90
2023/03/23 04:37:34;;;;;;;;;;;;;;;;;;2023926;29;20555;-90
2023/03/23 04:38:34;;;;;;;22.08;11.52;;;;;;;;;;2031352;29;19938;-89
2023/03/23 04:39:34;;;;;;;;;;;;;;;;;;2039339;29;20586;-89
2023/03/23 04:40:37;;;;;;;23.33;11.47;;;;;;;;;;2031604;29;19946;-89
2023/03/23 04:41:38;;;;;;;21.38;10.40;;;;;;;;;;2031126;29;20251;-89
2023/03/23 04:42:39;;;;;;;20.88;11.57;;;;;;;;;;2023174;29;20598;-89
2023/03/23 04:43:41;;;;;;;18.63;11.45;;;;;;;;;;2025046;29;20029;-89
2023/03/23 04:44:43;;;;;;;19.58;10.55;;;;;;;;;;2037567;29;20032;-88
2023/03/23 04:45:45;;;;;;;18.77;10.13;;;;;;;;;;2045642;29;20027;-90
2023/03/23 04:46:49;;;;;;;19.80;10.57;;;;;;;;;;2031236;29;20028;-89
2023/03/23 04:47:57;;;;;;;22.67;11.70;;;;;;;;;;2031367;29;20031;-90
2023/03/23 04:48:59;;;;;;;22.70;11.38;;;;;;;;;;2033169;29;20035;-89
2023/03/23 04:50:01;;;;;;;21.45;11.82;;;;;;;;;;2032111;29;20086;-90
2023/03/23 04:51:03;;;;;;;23.33;12.20;;;;;;;;;;2032174;29;20277;-90
2023/03/23 04:52:05;;;;;;;20.70;12.48;;;;;;;;;;2031224;29;20024;-89
2023/03/23 04:53:05;;;;;;;22.00;11.77;;;;;;;;;;2031636;29;20043;-88
2023/03/23 04:54:06;;;;;;;;;;;;;;;;;;2031670;29;20514;-89
2023/03/23 04:55:09;;;;;;;20.43;12.40;;;;;;;;;;2038845;29;19938;-91
2023/03/23 04:56:09;;;;;;;22.83;12.82;;;;;;;;;;2031165;29;20032;-89
2023/03/23 04:57:09;;;;;;;;;;;;;;;;;;2031621;29;20032;-91
2023/03/23 04:58:14;;;;;;;25.27;13.10;;;;;;;;;;2031853;29;20378;-90
2023/03/23 04:59:14;;;;;;;22.75;12.70;;;;;;;;;;2032268;29;20045;-89
2023/03/23 05:00:16;;;;;;;23.17;13.70;;;;;;;;;;2031921;29;20040;-90
2023/03/23 05:01:17;;;;;;;25.35;13.75;;;;;;;;;;2031197;29;20070;-90
2023/03/23 05:02:18;;;;;;;24.30;13.50;;;;;;;;;;2031219;29;20024;-89
2023/03/23 05:03:19;;;;;;;24.05;13.68;;;;;;;;;;2039204;29;20058;-90
2023/03/23 05:04:19;;;;;;;24.17;13.43;;;;;;;;;;2031645;29;20028;-89
2023/03/23 05:05:20;;;;;;;;;;;;;;;;;;2031630;29;20517;-90
2023/03/23 05:06:21;;;;;;;32.65;15.48;;;;;;;;;;2031163;29;20307;-89
2023/03/23 05:07:21;;;;;;;34.75;18.55;;;;;;;;;;2031758;29;20031;-89
2023/03/23 05:08:24;;;;;;;38.75;20.92;;;;;;;;;;2031017;29;20039;-89
2023/03/23 05:09:24;;;;;;;34.80;17.48;;;;;;;;;;2030949;29;20107;-89
2023/03/23 05:10:24;;;;;;;28.55;14.73;;;;;;;;;;2031427;29;20036;-90
2023/03/23 05:11:25;;;;;;;;;;;;;;;;;;2031600;29;20106;-91
2023/03/23 05:12:26;;;;;;;32.47;16.30;;;;;;;;;;1684749;29;10244194;-90
2023/03/23 05:13:27;;;;;;;42.85;21.92;;;;;;;;;;2030977;29;20032;-89
2023/03/23 05:14:28;;;;;;;21.55;12.98;;;;;;;;;;2031202;29;20071;-92
2023/03/23 05:15:29;;;;;;;25.83;14.70;;;;;;;;;;2031265;29;20027;-91
2023/03/23 05:16:30;;;;;;;26.92;14.57;;;;;;;;;;2031327;29;20034;-91
2023/03/23 05:17:32;;;;;;;25.35;14.32;;;;;;;;;;2032235;29;20040;-92
2023/03/23 05:18:32;;;;;;;26.65;15.15;;;;;;;;;;2032223;29;20047;-91
2023/03/23 05:19:33;;;;;;;22.25;13.23;;;;;;;;;;2031141;29;20547;-90
2023/03/23 05:20:33;;;;;;;;;;;;;;;;;;2031866;29;20484;-90
2023/03/23 05:21:34;;;;;;;27.07;14.57;;;;;;;;;;2041107;29;20006;-91
2023/03/23 05:22:34;;;;;;;;;;;;;;;;;;2031364;29;20035;-91
2023/03/23 05:23:35;;;;;;;29.17;14.57;;;;;;;;;;2023134;29;19939;-90
2023/03/23 05:24:37;;;;;;;;;;;;;;;;;;2039193;29;20082;-90
2023/03/23 05:25:40;;;;;;;25.98;13.90;;;;;;;;;;2038719;29;19959;-91
2023/03/23 05:26:40;;;;;;;28.02;14.90;;;;;;;;;;2038715;29;20090;-90
2023/03/23 05:27:48;;;;;;;29.75;14.45;;;;;;;;;;2038248;29;20039;-89
2023/03/23 05:28:52;;;;;;;26.17;14.77;;;;;;;;;;2038246;29;20043;-92
2023/03/23 05:29:52;;;;;;;31.77;16.08;;;;;;;;;;2031214;29;20483;-90
2023/03/23 05:30:53;;;;;;;30.15;16.10;;;;;;;;;;2023054;29;20036;-90
2023/03/23 05:31:55;;;;;;;30.90;16.45;;;;;;;;;;2030960;29;20127;-90
2023/03/23 05:32:56;;;;;;;26.98;14.77;;;;;;;;;;2031103;29;20043;-90
2023/03/23 05:33:56;;;;;;;26.73;14.82;;;;;;;;;;2031125;29;20468;-91
2023/03/23 05:35:00;;;;;;;23.95;14.15;;;;;;;;;;2031076;29;20539;-91
2023/03/23 05:36:02;;;;;;;27.58;14.43;;;;;;;;;;2023733;29;20351;-90
2023/03/23 05:37:03;;;;;;;27.77;14.65;;;;;;;;;;2025915;29;20087;-90
2023/03/23 05:38:04;;;;;;;31.15;16.25;;;;;;;;;;2031063;29;20035;-89
2023/03/23 05:39:04;;;;;;;30.02;17.45;;;;;;;;;;2038180;29;20028;-90
2023/03/23 05:40:06;;;;;;;30.77;17.05;;;;;;;;;;1685079;29;10244015;-89
2023/03/23 05:41:07;;;;;;;35.22;16.45;;;;;;;;;;2032357;29;20391;-90
2023/03/23 05:42:08;;;;;;;;;;;;;;;;;;2032370;29;20088;-90
2023/03/23 05:43:09;;;;;;;26.73;15.55;;;;;;;;;;2039188;29;19921;-90
2023/03/23 05:44:10;;;;;;;28.13;15.02;;;;;;;;;;2039133;29;20099;-90
2023/03/23 05:45:10;;;;;;;25.50;13.63;;;;;;;;;;2032059;29;20024;-90
2023/03/23 05:46:11;;;;;;;20.10;11.40;;;;;;;;;;2031245;29;20020;-91
2023/03/23 05:47:12;;;;;;;27.13;12.15;;;;;;;;;;2031303;29;20087;-90
2023/03/23 05:48:12;;;;;;;21.10;11.55;;;;;;;;;;2030981;29;20060;-89
2023/03/23 05:49:15;;;;;;;27.45;12.82;;;;;;;;;;2023121;29;20017;-91
2023/03/23 05:50:17;;;;;;;22.48;12.32;;;;;;;;;;2031249;29;20718;-91
2023/03/23 05:51:18;;;;;;;28.33;14.00;;;;;;;;;;2030884;29;20044;-91
2023/03/23 05:52:20;;;;;;;28.58;15.27;;;;;;;;;;2030531;29;20512;-90
2023/03/23 05:53:20;;;;;;;28.77;15.45;;;;;;;;;;2022779;29;20024;-89
2023/03/23 05:54:25;;;;;;;26.77;14.30;;;;;;;;;;1779864;29;10356079;-89
2023/03/23 05:55:25;;;;;;;25.48;14.25;;;;;;;;;;2023550;29;20284;-89
2023/03/23 05:56:26;;;;;;;26.30;12.88;;;;;;;;;;2030829;29;20066;-89
2023/03/23 05:57:27;;;;;;;;;;;;;;;;;;2031845;29;20411;-90
2023/03/23 05:58:27;;;;;;;23.65;13.05;;;;;;;;;;2030713;29;19955;-89
2023/03/23 05:59:28;;;;;;;24.88;12.77;;;;;;;;;;2033563;29;20088;-89
2023/03/23 06:00:30;;;;;;;25.67;13.00;;;;;;;;;;2040611;28;20044;-89
2023/03/23 06:01:31;;;;;;;22.83;13.70;;;;;;;;;;2041619;28;20020;-90
2023/03/23 06:02:32;;;;;;;22.27;10.70;;;;;;;;;;2038905;29;20030;-90
2023/03/23 06:03:32;;;;;;;23.88;11.48;;;;;;;;;;2031388;29;20060;-89
2023/03/23 06:04:33;;;;;;;;;;;;;;;;;;2032714;29;20432;-89
2023/03/23 06:05:34;;;;;;;22.67;12.40;;;;;;;;;;2032443;29;19918;-89
2023/03/23 06:06:35;;;;;;;24.50;12.43;;;;;;;;;;2031353;29;20409;-89
2023/03/23 06:07:35;;;;;;;24.33;13.02;;;;;;;;;;2030556;29;20036;-89
2023/03/23 06:08:37;;;;;;;24.00;12.52;;;;;;;;;;2031271;29;20032;-89
2023/03/23 06:09:38;;;;;;;29.80;14.13;;;;;;;;;;2030422;29;20071;-87
2023/03/23 06:10:38;;;;;;;25.40;13.77;;;;;;;;;;2030716;29;20047;-91
2023/03/23 06:11:39;;;;;;;29.88;14.15;;;;;;;;;;2031384;29;20028;-90
2023/03/23 06:12:41;;;;;;;26.55;14.02;;;;;;;;;;2023267;29;20060;-89
2023/03/23 06:13:41;;;;;;;29.10;15.00;;;;;;;;;;2030569;29;20125;-89
2023/03/23 06:14:42;;;;;;;31.77;16.60;;;;;;;;;;2022666;29;20060;-89
2023/03/23 06:15:43;;;;;;;27.98;16.27;;;;;;;;;;2030902;29;20036;-90